Pine Knot, Kentucky
Current Conditions -  °F | °C
As of 4:56 PM on Tuesday 25 Nov 2014 (Local Time) from KEKQ Reporting Station
Clear Clear  
Wind Chill: 45°   Ceiling: Unl
Heat Index: 48°   Visibility: 9mi
Dew Point: 30°   Wind: 6mph
Humidity: 50%   Direction: 310°NW
Pressure: 30.12"   Gusts: NA
Location:  36.65°N, 84.44°W
Report Text: KEKQ 252156Z AUTO 31005KT 9SM CLR 09/M01 A3012 RMK AO2 T00881011 SLP206
Loading
Personal Weather Stations






























Interactive Weather Map New forecast layout! Learn more

10-Day Weather Forecast

Advertisements
Track Severe Weather on mobile